Time;durP1;ratioP1;P1;durP2;ratioP2;P2;SDS_P1;SDS_P2;PMS_P1;PMS_P2;Temp;Humidity;BMP_temperature;BMP_pressure;BME280_temperature;BME280_humidity;BME280_pressure;Samples;Min_cycle;Max_cycle;Signal;HPM_P1;HPM_P2
2022/10/01 00:01:18;;;;;;;23.48;13.80;;;7.20;99.90;;;;;;4953232;28;20079;-69
2022/10/01 00:03:49;;;;;;;19.85;13.35;;;7.20;99.90;;;;;;4952621;29;20127;-66
2022/10/01 00:06:19;;;;;;;20.90;12.90;;;7.10;99.90;;;;;;4933454;29;20107;-66
2022/10/01 00:08:48;;;;;;;19.63;12.80;;;7.20;99.90;;;;;;4935756;29;20043;-67
2022/10/01 00:11:18;;;;;;;21.63;12.35;;;7.10;99.90;;;;;;4960348;28;20069;-67
2022/10/01 00:13:47;;;;;;;20.73;13.85;;;7.10;99.90;;;;;;4952643;29;20050;-66
2022/10/01 00:16:17;;;;;;;17.35;11.88;;;7.00;99.90;;;;;;4953100;28;20074;-67
2022/10/01 00:18:46;;;;;;;21.27;12.70;;;7.00;99.90;;;;;;4954079;28;20071;-68
2022/10/01 00:21:19;;;;;;;16.63;12.10;;;7.00;99.90;;;;;;4953076;29;20066;-67
2022/10/01 00:23:47;;;;;;;23.52;13.85;;;7.00;99.90;;;;;;4952912;29;20043;-68
2022/10/01 00:26:19;;;;;;;18.48;12.88;;;7.00;99.90;;;;;;4952906;29;20059;-67
2022/10/01 00:28:56;;;;;;;20.30;13.50;;;7.00;99.90;;;;;;4952271;29;20070;-67
2022/10/01 00:31:24;;;;;;;21.55;13.77;;;7.00;99.90;;;;;;4971372;28;20386;-69
2022/10/01 00:33:57;;;;;;;23.38;15.20;;;7.00;99.90;;;;;;4951818;29;20061;-67
2022/10/01 00:36:25;;;;;;;20.52;13.95;;;7.00;99.90;;;;;;4949962;29;20043;-67
2022/10/01 00:38:58;;;;;;;24.88;14.70;;;7.00;99.90;;;;;;4951726;28;20131;-69
2022/10/01 00:41:28;;;;;;;23.00;14.00;;;7.00;99.90;;;;;;4951798;29;20078;-69
2022/10/01 00:43:58;;;;;;;20.75;13.75;;;7.00;99.90;;;;;;4953279;28;20464;-67
2022/10/01 00:46:40;;;;;;;21.83;13.75;;;7.00;99.90;;;;;;4930799;29;20055;-69
2022/10/01 00:49:14;;;;;;;22.23;13.87;;;6.90;99.90;;;;;;4964891;28;20449;-69
2022/10/01 00:51:47;;;;;;;36.47;14.63;;;7.00;99.90;;;;;;4946428;29;20334;-69
2022/10/01 00:54:21;;;;;;;19.63;14.25;;;6.90;99.90;;;;;;4968125;28;20052;-67
2022/10/01 00:56:52;;;;;;;22.08;14.63;;;7.00;99.90;;;;;;4953494;28;20047;-67
2022/10/01 00:59:20;;;;;;;21.85;14.23;;;6.90;99.90;;;;;;4935921;29;20074;-69
2022/10/01 01:01:47;;;;;;;21.23;14.27;;;7.00;99.90;;;;;;4934284;29;20048;-68
2022/10/01 01:04:17;;;;;;;22.60;14.48;;;6.90;99.90;;;;;;4948514;28;20461;-69
2022/10/01 01:06:54;;;;;;;19.15;13.75;;;6.90;99.90;;;;;;4951181;29;20083;-71
2022/10/01 01:09:25;;;;;;;21.80;14.40;;;7.00;99.90;;;;;;4950693;29;20083;-69
2022/10/01 01:12:39;;;;;;;24.23;13.77;;;6.90;99.90;;;;;;4968045;28;20040;-69
2022/10/01 01:15:14;;;;;;;21.88;14.27;;;6.90;99.90;;;;;;4944956;29;20065;-67
2022/10/01 01:18:03;;;;;;;20.95;13.95;;;6.90;99.90;;;;;;4935810;29;20047;-68
2022/10/01 01:20:44;;;;;;;28.95;15.80;;;6.90;99.90;;;;;;4953039;28;20050;-68
2022/10/01 01:23:17;;;;;;;22.85;14.88;;;6.90;99.90;;;;;;4952739;28;20050;-67
2022/10/01 01:25:46;;;;;;;24.10;15.05;;;6.90;99.90;;;;;;4951585;29;20083;-68
2022/10/01 01:28:21;;;;;;;24.60;15.38;;;6.90;99.90;;;;;;4951867;28;20433;-68
2022/10/01 01:30:52;;;;;;;27.77;16.55;;;6.90;99.90;;;;;;4951116;29;20059;-67
2022/10/01 01:33:22;;;;;;;24.00;16.38;;;6.90;99.90;;;;;;4951045;28;20055;-69
2022/10/01 01:36:03;;;;;;;24.85;16.05;;;6.90;99.90;;;;;;4939872;29;20044;-68
2022/10/01 01:38:37;;;;;;;24.73;16.73;;;6.90;99.90;;;;;;4950898;28;20692;-69
2022/10/01 01:41:05;;;;;;;26.48;16.80;;;6.90;99.90;;;;;;4948073;28;20506;-66
2022/10/01 01:43:39;;;;;;;25.52;16.83;;;6.80;99.90;;;;;;4946997;29;20047;-68
2022/10/01 01:46:09;;;;;;;25.95;16.92;;;6.80;99.90;;;;;;4933650;29;20103;-67
2022/10/01 01:48:40;;;;;;;29.55;17.52;;;6.80;99.90;;;;;;4939259;29;20051;-70
2022/10/01 01:51:41;;;;;;;28.85;16.67;;;6.80;99.90;;;;;;4951098;29;20073;-68
2022/10/01 01:54:09;;;;;;;32.03;18.30;;;6.80;99.90;;;;;;4930301;29;20048;-68
2022/10/01 01:56:36;;;;;;;29.70;18.02;;;6.80;99.90;;;;;;4920657;29;20095;-68
2022/10/01 01:59:04;;;;;;;28.67;17.63;;;6.80;99.90;;;;;;4912831;29;20047;-69
2022/10/01 02:01:43;;;;;;;27.30;17.60;;;6.80;99.90;;;;;;4926339;29;20056;-68
2022/10/01 02:04:32;;;;;;;27.83;18.30;;;6.80;99.90;;;;;;4925472;29;20104;-68
2022/10/01 02:07:08;;;;;;;28.90;18.27;;;6.80;99.90;;;;;;4926811;29;20075;-68
2022/10/01 02:09:58;;;;;;;29.30;17.70;;;6.80;99.90;;;;;;4933960;29;20481;-69
2022/10/01 02:12:36;;;;;;;31.08;18.35;;;6.80;99.90;;;;;;4926638;29;20143;-67
2022/10/01 02:15:09;;;;;;;33.63;20.52;;;6.80;99.90;;;;;;4931395;29;20048;-69
2022/10/01 02:17:42;;;;;;;30.52;19.17;;;6.80;99.90;;;;;;4903153;29;20075;-68
2022/10/01 02:20:45;;;;;;;30.60;19.27;;;6.80;99.90;;;;;;4934516;29;20059;-68
2022/10/01 02:23:18;;;;;;;30.73;19.90;;;6.80;99.90;;;;;;4880895;29;20515;-67
2022/10/01 02:25:50;;;;;;;31.48;19.15;;;6.80;99.90;;;;;;4918891;29;20097;-68
2022/10/01 02:28:22;;;;;;;33.88;18.92;;;6.80;99.90;;;;;;4895463;29;20087;-66
2022/10/01 02:30:54;;;;;;;31.50;19.00;;;6.80;99.90;;;;;;4947006;28;20058;-67
2022/10/01 02:33:27;;;;;;;30.55;18.80;;;6.80;99.90;;;;;;4955052;29;20062;-68
2022/10/01 02:35:56;;;;;;;29.75;19.60;;;6.80;99.90;;;;;;4938895;29;20054;-68
2022/10/01 02:38:25;;;;;;;31.83;18.20;;;6.80;99.90;;;;;;4954502;29;20088;-67
2022/10/01 02:40:55;;;;;;;31.23;18.50;;;6.90;99.90;;;;;;4955796;28;20047;-66
2022/10/01 02:43:33;;;;;;;30.88;18.60;;;6.90;99.90;;;;;;4954172;28;20047;-67
2022/10/01 02:46:13;;;;;;;28.90;17.13;;;6.90;99.90;;;;;;4955568;28;20490;-68
2022/10/01 02:48:41;;;;;;;26.75;17.55;;;6.90;99.90;;;;;;4954881;28;20167;-68
2022/10/01 02:51:20;;;;;;;31.65;17.98;;;6.90;99.90;;;;;;4957892;28;20051;-68
2022/10/01 02:53:54;;;;;;;29.80;18.25;;;6.90;99.90;;;;;;4957889;28;20051;-68
2022/10/01 02:59:15;;;;;;;28.40;17.85;;;7.00;99.90;;;;;;4952540;28;20145;-68
2022/10/01 03:01:42;;;;;;;28.92;18.58;;;7.00;99.90;;;;;;4956265;28;20051;-69
2022/10/01 03:04:09;;;;;;;29.52;18.08;;;7.00;99.90;;;;;;4937031;29;20130;-68
2022/10/01 03:06:36;;;;;;;29.20;18.13;;;7.00;99.90;;;;;;4946081;28;20051;-68
2022/10/01 03:09:07;;;;;;;30.42;19.15;;;7.10;99.90;;;;;;4953153;29;20569;-66
2022/10/01 03:11:34;;;;;;;28.40;17.27;;;7.10;99.90;;;;;;4952428;29;20047;-66
2022/10/01 03:14:03;;;;;;;31.52;19.83;;;7.10;99.90;;;;;;4950145;29;20529;-68
2022/10/01 03:16:30;;;;;;;31.58;18.30;;;7.10;99.90;;;;;;4952847;29;20520;-67
2022/10/01 03:18:57;;;;;;;27.75;18.17;;;7.10;99.90;;;;;;4953635;29;20039;-68
2022/10/01 03:21:25;;;;;;;30.80;19.40;;;7.10;99.90;;;;;;4953622;29;20460;-67
2022/10/01 03:23:52;;;;;;;32.50;18.98;;;7.10;99.90;;;;;;4954095;28;20069;-67
2022/10/01 03:26:19;;;;;;;34.33;20.85;;;7.10;99.90;;;;;;4939107;28;20433;-68
2022/10/01 03:28:47;;;;;;;31.02;20.17;;;7.20;99.90;;;;;;4949085;29;20110;-68
2022/10/01 03:31:14;;;;;;;30.80;18.90;;;7.30;99.90;;;;;;4920622;29;20062;-68
2022/10/01 03:33:41;;;;;;;30.33;19.00;;;7.30;99.90;;;;;;4958612;28;20110;-69
2022/10/01 03:36:09;;;;;;;30.65;20.13;;;7.30;99.90;;;;;;4936769;29;20134;-67
2022/10/01 03:38:36;;;;;;;33.38;19.25;;;7.30;99.90;;;;;;4954877;28;20047;-68
2022/10/01 03:41:03;;;;;;;28.77;18.45;;;7.40;99.90;;;;;;4953547;29;20043;-67
2022/10/01 03:43:31;;;;;;;28.58;18.45;;;7.40;99.90;;;;;;4953454;29;20395;-67
2022/10/01 03:45:58;;;;;;;32.25;20.40;;;7.40;99.90;;;;;;4952078;28;20102;-67
2022/10/01 03:48:25;;;;;;;33.47;18.95;;;7.40;99.90;;;;;;4957030;28;20098;-70
2022/10/01 03:50:54;;;;;;;30.55;19.55;;;7.50;99.90;;;;;;4941733;28;20492;-67
2022/10/01 03:53:22;;;;;;;32.10;19.35;;;7.50;99.90;;;;;;4961739;28;20043;-68
2022/10/01 03:55:50;;;;;;;31.48;19.15;;;7.40;99.90;;;;;;4953261;28;20043;-68
2022/10/01 03:58:20;;;;;;;31.65;19.80;;;7.40;99.90;;;;;;4958556;28;20043;-67
2022/10/01 04:00:49;;;;;;;32.53;20.10;;;7.40;99.90;;;;;;4953224;29;20043;-68
2022/10/01 04:03:17;;;;;;;31.75;19.33;;;7.50;99.90;;;;;;4953464;29;20481;-67
2022/10/01 04:05:44;;;;;;;34.13;20.40;;;7.50;99.90;;;;;;4952054;29;20494;-68
2022/10/01 04:08:13;;;;;;;33.75;19.77;;;7.50;99.90;;;;;;4971821;28;20045;-68
2022/10/01 04:10:40;;;;;;;33.20;19.35;;;7.50;99.90;;;;;;4936021;29;20471;-67
2022/10/01 04:13:08;;;;;;;31.55;19.73;;;7.50;99.90;;;;;;4934702;29;20043;-67
2022/10/01 04:15:36;;;;;;;31.00;20.00;;;7.60;99.90;;;;;;4956581;28;20050;-69
2022/10/01 04:18:04;;;;;;;31.52;19.08;;;7.60;99.90;;;;;;4934894;29;20054;-67
2022/10/01 04:20:32;;;;;;;33.97;19.50;;;7.70;99.90;;;;;;4957525;28;20490;-68
2022/10/01 04:23:00;;;;;;;31.27;19.45;;;7.70;99.90;;;;;;4971896;28;20082;-67
2022/10/01 04:25:28;;;;;;;30.38;18.65;;;7.70;99.90;;;;;;4954851;28;20142;-67
2022/10/01 04:28:01;;;;;;;33.10;19.73;;;7.70;99.90;;;;;;4967142;28;20053;-67
2022/10/01 04:30:31;;;;;;;37.22;19.98;;;7.70;99.90;;;;;;4948274;28;20505;-67
2022/10/01 04:32:59;;;;;;;31.95;20.30;;;7.60;99.90;;;;;;4932723;29;20476;-68
2022/10/01 04:35:27;;;;;;;31.63;19.60;;;7.70;99.90;;;;;;4962859;28;20047;-68
2022/10/01 04:38:02;;;;;;;33.22;19.15;;;7.70;99.90;;;;;;4952691;28;20051;-68
2022/10/01 04:40:33;;;;;;;31.25;19.27;;;7.70;99.90;;;;;;4936151;29;20047;-70
2022/10/01 04:43:04;;;;;;;30.40;18.67;;;7.70;99.90;;;;;;4949544;28;20046;-68
2022/10/01 04:45:31;;;;;;;30.60;18.25;;;7.70;99.90;;;;;;4953412;28;20442;-68
2022/10/01 04:47:59;;;;;;;31.35;19.17;;;7.70;99.90;;;;;;4929229;29;20044;-71
2022/10/01 04:50:26;;;;;;;31.90;19.55;;;7.70;99.90;;;;;;4951464;28;20047;-68
2022/10/01 04:52:54;;;;;;;32.50;19.33;;;7.80;99.90;;;;;;4933914;28;20054;-69
2022/10/01 04:55:22;;;;;;;32.53;20.58;;;7.80;99.90;;;;;;4949964;28;20126;-69
2022/10/01 04:57:49;;;;;;;29.42;18.70;;;7.80;99.90;;;;;;4943717;29;20048;-69
2022/10/01 05:00:20;;;;;;;32.72;19.88;;;7.80;99.90;;;;;;4943952;28;20454;-68
2022/10/01 05:02:49;;;;;;;32.45;19.90;;;7.90;99.90;;;;;;4935134;28;20051;-68
2022/10/01 05:05:19;;;;;;;35.38;20.42;;;7.80;99.90;;;;;;4957319;28;20046;-68
2022/10/01 05:07:47;;;;;;;35.35;20.73;;;7.70;99.90;;;;;;4948163;28;20039;-69
2022/10/01 05:10:17;;;;;;;35.13;19.17;;;7.80;99.90;;;;;;4959741;28;20051;-67
2022/10/01 05:12:45;;;;;;;32.03;19.50;;;7.70;99.90;;;;;;4949083;29;20043;-68
2022/10/01 05:15:13;;;;;;;32.35;19.67;;;7.70;99.90;;;;;;4950861;28;20446;-69
2022/10/01 05:17:40;;;;;;;34.63;20.85;;;7.70;99.90;;;;;;4947855;28;20573;-67
2022/10/01 05:20:14;;;;;;;32.70;19.23;;;7.70;99.90;;;;;;4949762;29;20050;-67
2022/10/01 05:22:43;;;;;;;31.92;19.70;;;7.80;99.90;;;;;;4961576;28;20065;-67
2022/10/01 05:25:11;;;;;;;36.03;20.08;;;7.80;99.90;;;;;;4930714;29;20091;-66
2022/10/01 05:27:39;;;;;;;33.45;19.65;;;7.80;99.90;;;;;;4961592;28;20399;-67
2022/10/01 05:30:09;;;;;;;32.67;19.65;;;7.80;99.90;;;;;;4951662;28;20137;-68
2022/10/01 05:32:37;;;;;;;32.05;19.73;;;7.80;99.90;;;;;;4950321;29;20386;-69
2022/10/01 05:35:06;;;;;;;36.72;20.13;;;7.90;99.90;;;;;;4933694;29;20051;-66
2022/10/01 05:37:34;;;;;;;32.67;19.70;;;7.90;99.90;;;;;;4946855;28;20051;-67
2022/10/01 05:40:01;;;;;;;31.33;19.38;;;7.90;99.90;;;;;;4945822;28;20046;-67
2022/10/01 05:42:28;;;;;;;33.92;19.52;;;8.00;99.90;;;;;;4949794;29;20051;-66
2022/10/01 05:44:56;;;;;;;32.47;19.98;;;8.00;99.90;;;;;;4952471;28;20050;-67
2022/10/01 05:47:23;;;;;;;34.70;20.63;;;8.00;99.90;;;;;;4950365;28;20490;-66
2022/10/01 05:49:50;;;;;;;32.38;19.00;;;8.00;99.90;;;;;;4946870;28;20051;-67
2022/10/01 05:52:18;;;;;;;34.13;20.10;;;8.00;99.90;;;;;;4947987;29;20054;-67
2022/10/01 05:54:45;;;;;;;33.97;19.98;;;8.10;99.90;;;;;;4949706;29;20078;-69
2022/10/01 05:57:12;;;;;;;35.08;19.35;;;8.10;99.90;;;;;;4961439;28;20043;-67
2022/10/01 05:59:39;;;;;;;28.52;18.02;;;8.10;99.90;;;;;;4951463;28;20117;-67
2022/10/01 06:02:08;;;;;;;33.22;18.55;;;8.20;99.90;;;;;;4952265;28;20050;-66
2022/10/01 06:04:36;;;;;;;32.30;19.80;;;8.30;99.90;;;;;;4952491;28;20529;-67
2022/10/01 06:07:08;;;;;;;32.65;19.40;;;8.40;99.90;;;;;;4949681;29;20047;-67
2022/10/01 06:09:35;;;;;;;30.20;18.75;;;8.40;99.90;;;;;;4949970;29;20457;-67
2022/10/01 06:12:04;;;;;;;27.65;17.92;;;8.50;99.90;;;;;;4951017;28;20047;-67
2022/10/01 06:14:31;;;;;;;30.52;18.67;;;8.60;99.90;;;;;;4947450;29;20054;-67
2022/10/01 06:16:58;;;;;;;29.60;18.20;;;8.60;99.90;;;;;;4950573;29;20070;-67
2022/10/01 06:19:26;;;;;;;30.90;18.17;;;8.60;99.90;;;;;;4951610;28;20474;-70
2022/10/01 06:21:53;;;;;;;32.17;18.52;;;8.80;99.90;;;;;;4949958;29;20102;-67
2022/10/01 06:24:20;;;;;;;28.83;17.65;;;8.80;99.90;;;;;;4949656;28;20043;-69
2022/10/01 06:26:48;;;;;;;27.80;17.45;;;8.80;99.90;;;;;;4951094;29;20043;-67
2022/10/01 06:29:15;;;;;;;29.65;18.42;;;8.90;99.90;;;;;;4951700;28;20059;-71
2022/10/01 06:31:42;;;;;;;28.42;17.00;;;8.80;99.90;;;;;;4950972;29;20078;-67
2022/10/01 06:34:10;;;;;;;26.63;17.10;;;8.90;99.90;;;;;;4934868;29;20471;-69
2022/10/01 06:36:37;;;;;;;26.30;17.02;;;8.90;99.90;;;;;;4946921;28;20495;-69
2022/10/01 06:39:04;;;;;;;28.63;18.48;;;8.90;99.90;;;;;;4935035;29;20531;-67
2022/10/01 06:41:33;;;;;;;27.83;17.23;;;9.00;99.90;;;;;;4951772;28;20494;-69
2022/10/01 06:44:01;;;;;;;27.48;16.35;;;9.00;99.90;;;;;;4947690;29;20102;-68
2022/10/01 06:46:28;;;;;;;30.17;17.27;;;9.10;99.90;;;;;;4958284;28;20446;-67
2022/10/01 06:48:55;;;;;;;23.27;15.65;;;9.10;99.90;;;;;;4951375;28;20051;-71
2022/10/01 06:52:47;;;;;;;22.80;15.15;;;9.20;99.90;;;;;;4949702;29;20063;-69
2022/10/01 06:54:10;;;;;;;21.92;14.80;;;9.20;99.90;;;;;;4950710;29;20518;-69
2022/10/01 06:56:37;;;;;;;24.95;15.60;;;9.20;99.90;;;;;;4950075;29;20047;-69
2022/10/01 06:59:04;;;;;;;24.02;16.17;;;9.30;99.90;;;;;;4951858;28;20042;-67
2022/10/01 07:01:32;;;;;;;24.05;15.30;;;9.30;99.90;;;;;;4949893;28;20048;-70
2022/10/01 07:04:00;;;;;;;21.95;14.65;;;9.30;99.90;;;;;;4951596;28;20398;-70
2022/10/01 07:06:27;;;;;;;24.65;16.35;;;9.40;99.90;;;;;;4968375;28;20046;-70
2022/10/01 07:08:55;;;;;;;23.85;16.40;;;9.40;99.90;;;;;;4953469;28;20405;-67
2022/10/01 07:11:23;;;;;;;23.58;15.18;;;9.40;99.90;;;;;;4937766;29;20137;-68
2022/10/01 07:13:50;;;;;;;21.25;14.68;;;9.50;99.90;;;;;;4952254;29;20117;-67
2022/10/01 07:16:20;;;;;;;23.50;15.52;;;9.60;99.90;;;;;;4955035;28;20051;-68
2022/10/01 07:18:48;;;;;;;23.38;15.40;;;9.50;99.90;;;;;;4937244;29;20123;-67
2022/10/01 07:21:15;;;;;;;23.27;14.95;;;9.40;99.90;;;;;;4953296;29;20054;-68
2022/10/01 07:23:42;;;;;;;22.35;14.80;;;9.40;99.90;;;;;;4937782;29;20094;-67
2022/10/01 07:26:10;;;;;;;20.85;14.43;;;9.50;99.90;;;;;;4954893;28;20138;-69
2022/10/01 07:28:37;;;;;;;24.42;16.45;;;9.60;99.90;;;;;;4953376;29;20811;-68
2022/10/01 07:31:10;;;;;;;23.40;15.10;;;9.60;99.90;;;;;;4953258;29;20047;-68
2022/10/01 07:33:38;;;;;;;25.15;14.45;;;9.60;99.90;;;;;;4954388;28;20130;-67
2022/10/01 07:36:07;;;;;;;22.70;15.15;;;9.60;99.90;;;;;;4953394;29;20050;-70
2022/10/01 07:38:34;;;;;;;24.40;15.32;;;9.60;99.90;;;;;;4952367;29;20063;-68
2022/10/01 07:41:02;;;;;;;23.75;15.10;;;9.60;99.90;;;;;;4954606;28;20047;-70
2022/10/01 07:43:31;;;;;;;20.83;14.85;;;9.60;99.90;;;;;;4946097;29;20039;-68
2022/10/01 07:46:00;;;;;;;24.65;15.10;;;9.70;99.90;;;;;;4953096;29;20520;-68
2022/10/01 07:48:28;;;;;;;21.92;13.70;;;9.70;99.90;;;;;;4951098;29;20138;-69
2022/10/01 07:50:56;;;;;;;27.35;16.05;;;9.70;99.90;;;;;;4953060;28;20508;-67
2022/10/01 07:53:24;;;;;;;22.73;14.65;;;9.70;99.90;;;;;;4950363;29;20143;-67
2022/10/01 07:55:51;;;;;;;22.10;14.77;;;9.60;99.90;;;;;;4953435;29;20078;-68
2022/10/01 07:58:22;;;;;;;21.55;15.23;;;9.70;99.90;;;;;;4945884;28;20048;-68
2022/10/01 08:00:54;;;;;;;23.50;15.57;;;9.70;99.90;;;;;;4959334;28;20490;-66
2022/10/01 08:03:22;;;;;;;21.20;14.52;;;9.60;99.90;;;;;;4953136;29;20494;-67
2022/10/01 08:05:50;;;;;;;20.00;14.55;;;9.70;99.90;;;;;;4952687;28;20047;-69
2022/10/01 08:08:17;;;;;;;22.65;14.95;;;9.70;99.90;;;;;;4953036;29;20078;-66
2022/10/01 08:10:44;;;;;;;18.30;13.35;;;9.70;99.90;;;;;;4953005;29;20110;-67
2022/10/01 08:13:13;;;;;;;20.50;13.40;;;9.70;99.90;;;;;;4936933;29;20055;-66
2022/10/01 08:15:43;;;;;;;20.58;13.85;;;9.60;99.90;;;;;;4952485;29;20063;-69
2022/10/01 08:18:11;;;;;;;19.83;13.85;;;9.70;99.90;;;;;;4958056;28;20085;-67
2022/10/01 08:20:39;;;;;;;29.30;14.70;;;9.70;99.90;;;;;;4958948;28;20419;-68
2022/10/01 08:23:09;;;;;;;20.58;14.38;;;9.70;99.90;;;;;;4950724;28;20051;-69
2022/10/01 08:25:38;;;;;;;20.10;14.25;;;9.70;99.90;;;;;;4947034;28;20058;-66
2022/10/01 08:28:10;;;;;;;26.75;14.98;;;9.70;99.90;;;;;;4951013;28;20045;-67
2022/10/01 08:30:39;;;;;;;20.15;13.27;;;9.70;99.90;;;;;;4949838;29;20445;-66
2022/10/01 08:33:09;;;;;;;20.17;13.60;;;9.70;99.90;;;;;;4951404;28;20043;-66
2022/10/01 08:35:39;;;;;;;20.08;13.90;;;9.80;99.90;;;;;;4962418;28;20083;-67
2022/10/01 08:38:07;;;;;;;18.98;12.98;;;9.80;99.90;;;;;;4951882;28;20098;-67
2022/10/01 08:40:41;;;;;;;18.67;12.15;;;9.80;99.90;;;;;;4967094;28;20145;-66
2022/10/01 08:43:23;;;;;;;21.80;12.90;;;9.80;99.90;;;;;;4951028;29;20511;-67
2022/10/01 08:45:54;;;;;;;17.77;11.63;;;9.90;99.90;;;;;;4963470;28;20760;-69
2022/10/01 08:48:42;;;;;;;18.73;12.32;;;9.90;99.90;;;;;;4936199;28;20141;-66
2022/10/01 08:51:20;;;;;;;16.85;11.65;;;9.80;99.90;;;;;;4951449;28;20054;-66
2022/10/01 08:53:56;;;;;;;18.73;11.70;;;9.80;99.90;;;;;;4952544;28;20565;-67
2022/10/01 08:56:29;;;;;;;17.92;11.48;;;9.80;99.90;;;;;;4949451;28;20414;-68
2022/10/01 08:59:01;;;;;;;14.73;10.90;;;9.90;99.90;;;;;;4951449;29;20043;-67
2022/10/01 09:01:29;;;;;;;16.55;10.82;;;10.00;99.90;;;;;;4950283;28;20052;-68
2022/10/01 09:03:58;;;;;;;17.65;11.38;;;10.00;99.90;;;;;;4952113;28;20058;-67
2022/10/01 09:06:27;;;;;;;22.27;12.35;;;10.00;99.90;;;;;;4947909;28;20494;-68
2022/10/01 09:09:18;;;;;;;15.30;10.88;;;10.00;99.90;;;;;;4949063;28;20081;-66
2022/10/01 09:11:58;;;;;;;19.88;11.23;;;10.00;99.90;;;;;;4946512;28;20510;-66
2022/10/01 09:14:44;;;;;;;16.85;10.32;;;10.00;99.90;;;;;;4950546;29;20127;-69
2022/10/01 09:17:40;;;;;;;16.08;10.75;;;10.10;99.90;;;;;;4940679;28;20477;-70
2022/10/01 09:20:37;;;;;;;15.57;9.80;;;10.10;99.90;;;;;;4956103;28;20054;-69
2022/10/01 09:23:18;;;;;;;13.95;9.65;;;10.10;99.90;;;;;;4957797;28;20050;-66
2022/10/01 09:25:49;;;;;;;14.60;10.02;;;10.20;99.90;;;;;;4948119;28;20051;-66
2022/10/01 09:28:28;;;;;;;16.13;10.32;;;10.10;99.90;;;;;;4952083;28;20073;-66
2022/10/01 09:31:26;;;;;;;16.10;10.73;;;10.20;99.90;;;;;;4968932;28;20043;-66
2022/10/01 09:34:01;;;;;;;14.50;10.30;;;10.20;99.90;;;;;;4970567;28;20043;-68
2022/10/01 09:36:49;;;;;;;17.17;10.55;;;10.20;99.90;;;;;;4950237;28;20066;-68
2022/10/01 09:39:24;;;;;;;17.08;10.40;;;10.20;99.90;;;;;;4954986;28;20888;-66
2022/10/01 09:41:52;;;;;;;16.27;9.98;;;10.20;99.90;;;;;;4941858;29;20525;-65
2022/10/01 09:44:31;;;;;;;15.00;9.80;;;10.30;99.90;;;;;;4951116;28;20122;-66
2022/10/01 09:46:59;;;;;;;13.82;9.20;;;10.30;99.90;;;;;;4957683;28;20498;-66
2022/10/01 09:49:38;;;;;;;14.32;10.20;;;10.30;99.90;;;;;;4951613;28;20130;-66
2022/10/01 09:52:17;;;;;;;14.13;10.38;;;10.30;99.90;;;;;;4951542;28;20043;-65
2022/10/01 09:54:52;;;;;;;15.32;10.65;;;10.30;99.90;;;;;;4959815;28;20098;-67
2022/10/01 09:57:35;;;;;;;14.70;10.60;;;10.30;99.90;;;;;;4940939;28;20036;-67
2022/10/01 10:00:10;;;;;;;14.25;9.68;;;10.40;99.90;;;;;;4974999;28;20474;-66
2022/10/01 10:02:42;;;;;;;15.27;9.50;;;10.30;99.90;;;;;;4953501;28;20521;-67
2022/10/01 10:05:17;;;;;;;13.35;9.70;;;10.30;99.90;;;;;;4958047;28;20046;-67
2022/10/01 10:07:49;;;;;;;15.90;9.85;;;10.30;99.90;;;;;;4951453;28;20053;-67
2022/10/01 10:10:20;;;;;;;;;;;10.40;99.90;;;;;;4938434;29;20048;-67
2022/10/01 10:13:37;;;;;;;15.45;9.48;;;10.30;99.90;;;;;;4949501;29;19929;-69
2022/10/01 10:16:09;;;;;;;17.38;8.70;;;10.30;99.90;;;;;;4929941;29;20051;-70
2022/10/01 10:18:38;;;;;;;12.00;8.60;;;10.20;99.90;;;;;;4952472;28;20046;-68
2022/10/01 10:21:15;;;;;;;11.52;8.57;;;10.30;99.90;;;;;;4951841;28;20388;-68
2022/10/01 10:23:51;;;;;;;13.45;8.40;;;10.30;99.90;;;;;;4942950;29;20505;-69
2022/10/01 10:26:30;;;;;;;12.40;8.00;;;10.30;99.90;;;;;;4948831;28;20553;-68
2022/10/01 10:29:01;;;;;;;13.02;7.57;;;10.30;99.90;;;;;;4934404;28;20063;-70
2022/10/01 10:31:35;;;;;;;11.45;8.00;;;10.30;99.90;;;;;;4934673;29;20058;-68
2022/10/01 10:34:14;;;;;;;13.98;8.30;;;10.30;99.90;;;;;;4957563;28;20137;-66
2022/10/01 10:36:43;;;;;;;11.10;8.27;;;10.40;99.90;;;;;;4951106;28;20043;-69
2022/10/01 10:39:24;;;;;;;11.32;7.03;;;10.40;99.90;;;;;;4957029;28;20532;-68
2022/10/01 10:41:52;;;;;;;9.65;6.75;;;10.50;99.90;;;;;;4953677;28;20043;-67
2022/10/01 10:44:23;;;;;;;9.88;6.20;;;10.60;99.90;;;;;;4949116;28;20051;-67
2022/10/01 10:46:53;;;;;;;8.85;6.32;;;10.70;99.90;;;;;;4933697;29;20050;-68
2022/10/01 10:49:30;;;;;;;10.63;6.50;;;10.70;99.90;;;;;;4945248;29;20051;-67
2022/10/01 10:51:59;;;;;;;11.20;6.60;;;10.80;99.90;;;;;;4947017;29;20043;-67
2022/10/01 10:54:34;;;;;;;10.57;6.43;;;10.80;99.90;;;;;;4961638;28;20105;-67
2022/10/01 10:57:15;;;;;;;11.85;6.03;;;10.90;99.90;;;;;;4959764;28;20059;-70
2022/10/01 10:59:55;;;;;;;8.85;5.95;;;10.90;99.90;;;;;;4947962;29;20047;-70
2022/10/01 11:02:28;;;;;;;11.20;6.10;;;10.80;99.90;;;;;;4953574;29;20055;-71
2022/10/01 11:05:03;;;;;;;9.52;5.70;;;10.90;99.90;;;;;;4950006;29;20106;-68
2022/10/01 11:07:31;;;;;;;8.75;5.75;;;10.90;99.90;;;;;;4962661;28;20047;-67
2022/10/01 11:09:59;;;;;;;9.50;6.15;;;10.80;99.90;;;;;;4952863;29;20078;-68
2022/10/01 11:12:29;;;;;;;8.43;5.53;;;10.80;99.90;;;;;;4951580;28;20055;-68
2022/10/01 11:15:38;;;;;;;8.40;5.18;;;10.80;99.90;;;;;;4965202;28;20062;-68
2022/10/01 11:18:23;;;;;;;9.63;5.32;;;10.80;99.90;;;;;;4942544;29;20043;-68
2022/10/01 11:21:21;;;;;;;7.25;5.43;;;10.80;99.90;;;;;;4957630;28;20066;-68
2022/10/01 11:24:09;;;;;;;9.75;5.75;;;10.80;99.90;;;;;;4953130;28;20402;-68
2022/10/01 11:26:52;;;;;;;7.93;5.50;;;10.80;99.90;;;;;;4952068;29;20446;-68
2022/10/01 11:29:34;;;;;;;7.93;5.28;;;10.80;99.90;;;;;;4951965;28;20328;-67
2022/10/01 11:32:20;;;;;;;8.18;4.78;;;10.80;99.90;;;;;;4956021;28;20043;-68
2022/10/01 11:35:09;;;;;;;7.55;4.50;;;10.90;99.90;;;;;;4956123;28;20528;-67
2022/10/01 11:37:51;;;;;;;7.60;4.65;;;10.90;99.90;;;;;;4952976;28;20488;-66
2022/10/01 11:40:41;;;;;;;6.90;3.78;;;11.00;99.90;;;;;;4967069;28;20046;-67
2022/10/01 11:43:33;;;;;;;7.20;3.85;;;11.10;99.90;;;;;;4910674;29;20058;-68
2022/10/01 11:46:10;;;;;;;6.00;3.78;;;11.40;99.90;;;;;;4950693;29;20043;-66
2022/10/01 11:48:45;;;;;;;5.28;3.35;;;11.40;99.90;;;;;;4946666;28;20122;-68
2022/10/01 11:51:18;;;;;;;6.40;3.45;;;11.50;99.90;;;;;;4950926;28;20047;-68
2022/10/01 11:53:50;;;;;;;5.85;3.25;;;11.60;99.90;;;;;;4968575;28;20424;-67
2022/10/01 11:59:31;;;;;;;6.13;2.90;;;11.60;99.90;;;;;;4969317;28;19926;-68
2022/10/01 12:02:17;;;;;;;6.03;2.95;;;11.60;99.90;;;;;;4941045;28;20090;-66
2022/10/01 12:05:08;;;;;;;4.82;2.58;;;11.60;99.90;;;;;;4946587;29;20051;-68
2022/10/01 12:08:02;;;;;;;4.05;2.40;;;11.60;99.90;;;;;;4961141;28;20532;-68
2022/10/01 12:10:39;;;;;;;3.75;2.40;;;11.60;99.90;;;;;;4958636;28;20139;-67
2022/10/01 12:13:25;;;;;;;3.83;2.30;;;11.50;99.90;;;;;;4946756;29;20051;-68
2022/10/01 12:16:00;;;;;;;4.72;2.50;;;11.50;99.90;;;;;;4953201;28;20051;-68
2022/10/01 12:18:46;;;;;;;3.92;2.40;;;11.60;99.90;;;;;;4960542;28;20054;-67
2022/10/01 12:21:26;;;;;;;4.38;2.10;;;11.50;99.90;;;;;;4953255;28;20035;-66
2022/10/01 12:24:02;;;;;;;6.22;2.35;;;11.60;99.90;;;;;;4951434;29;20042;-67
2022/10/01 12:26:29;;;;;;;4.47;2.50;;;11.70;99.90;;;;;;4952309;28;20047;-68
2022/10/01 12:29:05;;;;;;;4.53;2.30;;;11.60;99.90;;;;;;4956737;28;20131;-67
2022/10/01 12:31:48;;;;;;;3.38;2.20;;;11.70;99.90;;;;;;4941598;29;20046;-68
2022/10/01 12:34:41;;;;;;;8.05;2.30;;;11.90;99.90;;;;;;4952202;28;20083;-66
2022/10/01 12:37:20;;;;;;;3.15;1.77;;;12.10;99.90;;;;;;4952444;29;20051;-66
2022/10/01 12:40:03;;;;;;;3.97;1.92;;;12.30;99.90;;;;;;4945469;29;20059;-68
2022/10/01 12:42:40;;;;;;;4.07;2.13;;;12.50;99.90;;;;;;4949739;28;20521;-67
2022/10/01 12:45:23;;;;;;;6.07;2.00;;;12.50;99.90;;;;;;4953119;28;20097;-67
2022/10/01 12:48:56;;;;;;;4.70;2.03;;;12.50;99.90;;;;;;4951796;28;20047;-67
2022/10/01 12:51:38;;;;;;;3.85;1.90;;;12.60;99.90;;;;;;4848843;29;20089;-68
2022/10/01 12:54:14;;;;;;;3.38;2.10;;;12.50;99.90;;;;;;4865811;29;20125;-68
2022/10/01 12:57:09;;;;;;;3.67;1.80;;;12.40;99.90;;;;;;4842477;29;20072;-67
2022/10/01 12:59:45;;;;;;;3.25;1.75;;;12.50;99.90;;;;;;4831549;29;20061;-68
2022/10/01 13:02:33;;;;;;;2.75;1.67;;;12.50;99.90;;;;;;4840960;29;20068;-67
2022/10/01 13:05:13;;;;;;;4.18;1.90;;;12.50;99.90;;;;;;4855840;29;20060;-66
2022/10/01 13:07:47;;;;;;;2.65;1.55;;;12.60;99.90;;;;;;4857374;29;20459;-67
2022/10/01 13:10:39;;;;;;;3.63;1.70;;;12.60;99.90;;;;;;4840067;29;20543;-69
2022/10/01 13:13:25;;;;;;;3.65;1.67;;;12.60;99.90;;;;;;4855309;29;20151;-68
2022/10/01 13:16:31;;;;;;;4.50;1.65;;;12.50;99.90;;;;;;4867567;29;20075;-67